createdAt,value
2022-08-31T12:17:28.119Z,18.70
2022-08-31T12:20:30.009Z,18.40
2022-08-31T12:23:53.460Z,18.30
2022-08-31T12:26:56.694Z,18.30
2022-08-31T12:29:33.813Z,18.40
2022-08-31T12:36:17.362Z,18.20
2022-08-31T12:38:45.135Z,18.20
2022-08-31T12:41:15.462Z,18.20
2022-08-31T12:43:48.503Z,18.30
2022-08-31T12:46:54.323Z,18.40
2022-08-31T12:49:54.858Z,18.50
2022-08-31T12:53:08.014Z,18.50
2022-08-31T13:11:41.863Z,18.30
2022-08-31T13:14:24.248Z,18.70
2022-08-31T13:16:55.207Z,18.90
2022-08-31T13:19:57.937Z,19.30
2022-08-31T13:22:37.467Z,19.30
2022-08-31T13:25:19.980Z,19.30
2022-08-31T13:27:51.373Z,19.30
2022-08-31T13:34:20.720Z,18.70
2022-08-31T13:36:58.342Z,18.50
2022-08-31T13:39:34.003Z,18.50
2022-08-31T13:42:10.179Z,18.50
2022-08-31T13:44:43.509Z,18.40
2022-08-31T13:47:31.115Z,18.50
2022-08-31T13:50:21.659Z,18.50
2022-08-31T13:56:49.276Z,18.30
2022-08-31T14:07:06.958Z,18.20
2022-08-31T14:09:34.332Z,18.30
2022-08-31T14:12:01.815Z,18.40
2022-08-31T14:14:29.336Z,18.70
2022-08-31T14:16:59.221Z,19.20
2022-08-31T14:19:35.954Z,19.70
2022-08-31T14:22:53.979Z,20.10
2022-08-31T14:31:53.328Z,19.80
2022-08-31T14:34:56.543Z,19.40
2022-08-31T14:45:43.956Z,17.90
2022-08-31T15:16:38.027Z,16.90
2022-08-31T15:23:05.582Z,16.90
2022-08-31T15:25:33.021Z,16.80
2022-08-31T15:28:02.375Z,16.80
2022-08-31T15:30:29.671Z,16.80
2022-08-31T15:32:58.813Z,16.70
2022-08-31T15:35:25.992Z,16.80
2022-08-31T15:37:58.361Z,16.50
2022-08-31T15:40:29.040Z,16.50
2022-08-31T15:42:56.981Z,16.50
2022-08-31T18:39:51.592Z,15.30
2022-08-31T18:42:22.771Z,15.20
2022-08-31T18:44:50.465Z,15.20
2022-08-31T18:47:19.371Z,15.20
2022-08-31T18:49:47.994Z,15.10
2022-08-31T18:52:21.697Z,15.20
2022-08-31T18:54:52.506Z,15.20
2022-08-31T18:57:22.893Z,15.20
2022-08-31T18:59:50.517Z,15.20
2022-08-31T19:02:18.343Z,15.20
2022-08-31T19:04:45.916Z,15.20
2022-08-31T19:07:13.910Z,15.20
2022-08-31T19:09:41.733Z,15.20
2022-08-31T19:12:13.614Z,15.20
2022-08-31T19:14:51.113Z,15.20
2022-08-31T19:17:19.569Z,15.20
2022-08-31T19:19:49.445Z,15.20
2022-08-31T19:22:18.051Z,15.20
2022-08-31T19:24:45.813Z,15.10
2022-08-31T19:27:14.090Z,15.00
2022-08-31T19:29:42.196Z,15.00
2022-08-31T19:32:10.089Z,15.10
2022-08-31T19:34:41.882Z,15.00
2022-08-31T19:37:10.757Z,15.00
2022-08-31T19:39:38.055Z,14.90
2022-08-31T19:42:08.021Z,14.90
2022-08-31T19:47:31.835Z,15.00
2022-08-31T19:49:59.217Z,14.90
2022-08-31T19:52:26.403Z,14.90
2022-08-31T19:54:53.664Z,15.00
2022-08-31T19:57:20.881Z,14.90
2022-08-31T19:59:48.179Z,14.90
2022-08-31T20:02:15.761Z,15.00
2022-08-31T20:04:43.058Z,15.00
2022-08-31T20:07:10.203Z,15.10
2022-08-31T20:09:37.389Z,15.00
2022-08-31T20:12:05.033Z,15.00
2022-08-31T20:14:32.451Z,15.00
2022-08-31T20:16:59.758Z,14.90
2022-08-31T20:19:29.382Z,14.90
2022-08-31T20:21:59.259Z,14.90
2022-08-31T20:24:27.102Z,14.90
2022-08-31T20:26:55.230Z,15.00
2022-08-31T20:29:22.747Z,15.10
2022-08-31T20:31:52.195Z,15.10
2022-08-31T20:34:23.424Z,15.00
2022-08-31T20:36:51.620Z,15.00
2022-08-31T20:39:19.946Z,15.00
2022-08-31T20:41:50.871Z,14.90
2022-08-31T20:44:31.517Z,14.90
2022-08-31T20:47:09.816Z,14.80
2022-08-31T20:49:46.006Z,14.80
2022-08-31T20:52:16.491Z,14.80
2022-08-31T20:54:44.349Z,14.70
2022-08-31T20:57:13.770Z,14.70
2022-08-31T20:59:41.484Z,14.60
2022-08-31T21:02:10.953Z,14.60
2022-08-31T21:04:42.570Z,14.70
2022-08-31T21:07:11.445Z,14.70
2022-08-31T21:09:42.013Z,14.80
2022-08-31T21:12:14.828Z,14.70
2022-08-31T21:14:46.511Z,14.50
2022-08-31T21:17:15.297Z,14.50
2022-08-31T21:19:44.286Z,14.50
2022-08-31T21:22:15.408Z,14.60
2022-08-31T21:24:43.301Z,14.60
2022-08-31T21:27:16.177Z,14.50
2022-08-31T21:29:45.172Z,14.40
2022-08-31T21:32:15.872Z,14.50
2022-08-31T21:34:43.146Z,14.60
2022-08-31T21:37:10.891Z,14.50
2022-08-31T21:39:40.803Z,14.50
2022-08-31T21:42:08.153Z,14.50
2022-08-31T21:44:35.462Z,14.50
2022-08-31T21:47:03.196Z,14.50
2022-08-31T21:49:30.373Z,14.50
2022-08-31T21:51:58.877Z,14.50
2022-08-31T21:54:29.021Z,14.50
2022-08-31T21:57:02.784Z,14.60
2022-08-31T21:59:35.167Z,14.50
2022-08-31T22:02:09.619Z,14.50
2022-08-31T22:04:42.409Z,14.50
2022-08-31T22:07:11.312Z,14.50
2022-08-31T22:09:38.574Z,14.50
2022-08-31T22:12:06.541Z,14.50
2022-08-31T22:14:37.480Z,14.40
2022-08-31T22:17:06.189Z,14.40
2022-08-31T22:19:39.253Z,14.40
2022-08-31T22:22:11.844Z,14.30
2022-08-31T22:24:42.117Z,14.30
2022-08-31T22:27:11.894Z,14.30
2022-08-31T22:29:40.860Z,14.20
2022-08-31T22:32:14.674Z,14.10
2022-08-31T22:34:43.437Z,14.10
2022-08-31T22:37:11.148Z,14.00
2022-08-31T22:39:40.610Z,14.00
2022-08-31T22:42:08.118Z,14.00
2022-08-31T22:44:35.826Z,14.00
2022-08-31T22:47:03.783Z,14.00
2022-08-31T22:49:31.378Z,13.90
2022-08-31T22:51:58.687Z,13.90
2022-08-31T22:54:26.622Z,13.90
2022-08-31T22:56:54.601Z,13.90
2022-08-31T22:59:25.008Z,13.90
2022-08-31T23:01:54.601Z,13.80
2022-08-31T23:04:25.164Z,13.90
2022-08-31T23:06:53.725Z,14.00
2022-08-31T23:09:22.566Z,14.00
2022-08-31T23:11:50.654Z,14.00
2022-08-31T23:14:18.194Z,14.00
2022-08-31T23:16:50.023Z,14.10
2022-08-31T23:19:20.750Z,14.00
2022-08-31T23:21:52.614Z,14.00
2022-08-31T23:24:39.326Z,13.90
2022-08-31T23:27:08.893Z,13.90
2022-08-31T23:29:43.984Z,13.90
2022-08-31T23:32:11.454Z,14.00
2022-08-31T23:34:40.210Z,14.00
2022-08-31T23:37:08.809Z,14.00
2022-08-31T23:39:40.749Z,14.10
2022-08-31T23:42:08.723Z,14.10
2022-08-31T23:44:35.940Z,14.10
2022-08-31T23:47:03.233Z,14.20
2022-08-31T23:49:30.420Z,14.20
2022-08-31T23:51:57.667Z,14.20
2022-08-31T23:54:24.860Z,14.20
2022-08-31T23:56:52.076Z,14.10
2022-08-31T23:59:19.688Z,14.10
